Time;durP1;ratioP1;P1;durP2;ratioP2;P2;SDS_P1;SDS_P2;PMS_P1;PMS_P2;Temp;Humidity;BMP_temperature;BMP_pressure;BME280_temperature;BME280_humidity;BME280_pressure;Samples;Min_cycle;Max_cycle;Signal;HPM_P1;HPM_P2
2021/08/21 00:00:02;;;;;;;4.82;2.83;;;;;;;21.15;64.29;101769.97;5051064;28;20025;-60
2021/08/21 00:02:28;;;;;;;6.63;2.80;;;;;;;21.14;64.27;101777.09;5058273;28;20106;-60
2021/08/21 00:04:53;;;;;;;6.43;3.37;;;;;;;21.14;64.19;101771.81;5058209;28;20417;-60
2021/08/21 00:07:18;;;;;;;6.00;2.90;;;;;;;21.13;64.11;101770.09;5057940;28;20281;-61
2021/08/21 00:09:46;;;;;;;5.47;2.70;;;;;;;21.13;64.12;101775.41;5058148;28;20049;-61
2021/08/21 00:12:11;;;;;;;4.45;2.72;;;;;;;21.14;64.01;101771.81;5057730;28;20388;-60
2021/08/21 00:14:36;;;;;;;5.63;3.10;;;;;;;21.12;64.28;101760.47;5058433;28;20031;-61
2021/08/21 00:17:03;;;;;;;7.50;3.50;;;;;;;21.12;63.92;101770.22;5058065;28;20031;-59
2021/08/21 00:19:28;;;;;;;5.38;3.00;;;;;;;21.11;64.06;101760.56;5057725;28;20033;-60
2021/08/21 00:21:53;;;;;;;4.35;2.65;;;;;;;21.09;64.01;101766.00;5058119;28;20542;-60
2021/08/21 00:24:19;;;;;;;6.15;2.88;;;;;;;21.12;63.91;101762.28;5058758;28;20078;-61
2021/08/21 00:26:44;;;;;;;5.90;3.05;;;;;;;21.11;63.89;101758.78;5057475;28;20522;-60
2021/08/21 00:29:09;;;;;;;5.82;2.70;;;;;;;21.12;64.12;101759.63;5058360;28;20028;-60
2021/08/21 00:31:35;;;;;;;5.00;3.00;;;;;;;21.10;63.91;101758.91;5058576;28;20100;-60
2021/08/21 00:34:01;;;;;;;5.78;2.80;;;;;;;21.09;63.95;101757.22;5057404;28;20017;-59
2021/08/21 00:36:26;;;;;;;8.20;2.83;;;;;;;21.09;63.95;101758.06;5058343;28;20032;-60
2021/08/21 00:38:52;;;;;;;6.38;2.75;;;;;;;21.10;63.92;101765.06;5058222;28;20107;-60
2021/08/21 00:41:17;;;;;;;5.97;3.00;;;;;;;21.10;63.96;101764.22;5057517;28;20419;-59
2021/08/21 00:43:43;;;;;;;6.13;2.78;;;;;;;21.08;64.17;101761.69;5058410;28;20033;-59
2021/08/21 00:46:08;;;;;;;6.03;2.58;;;;;;;21.09;64.13;101759.88;5058187;28;20028;-60
2021/08/21 00:48:33;;;;;;;5.38;3.00;;;;;;;21.06;64.14;101746.84;5057405;28;20068;-60
2021/08/21 00:51:01;;;;;;;5.10;2.70;;;;;;;21.07;64.08;101754.69;5057534;28;20053;-60
2021/08/21 00:53:27;;;;;;;6.03;2.83;;;;;;;21.08;63.86;101752.88;5058389;28;20335;-60
2021/08/21 00:55:53;;;;;;;5.05;2.90;;;;;;;21.07;63.97;101746.75;5057099;28;20518;-60
2021/08/21 00:58:22;;;;;;;5.13;2.83;;;;;;;21.07;63.97;101757.34;5058131;28;20131;-60
2021/08/21 01:00:51;;;;;;;5.43;2.85;;;;;;;21.05;64.15;101753.16;5058042;28;20031;-60
2021/08/21 01:03:16;;;;;;;4.70;2.97;;;;;;;21.07;64.13;101751.22;5057309;28;20025;-60
2021/08/21 01:05:42;;;;;;;5.10;2.80;;;;;;;21.06;64.01;101753.03;5058037;28;20024;-60
2021/08/21 01:08:07;;;;;;;5.97;3.60;;;;;;;21.06;64.10;101746.84;5057864;28;20262;-60
2021/08/21 01:10:35;;;;;;;5.05;2.70;;;;;;;21.06;63.94;101749.50;5057314;28;20380;-60
2021/08/21 01:13:01;;;;;;;5.03;3.00;;;;;;;21.05;64.09;101746.03;5054943;28;20071;-60
2021/08/21 01:15:26;;;;;;;5.25;2.88;;;;;;;21.06;64.00;101746.84;5054662;28;20017;-60
2021/08/21 01:17:52;;;;;;;6.30;3.05;;;;;;;21.06;63.98;101744.22;5053950;28;20116;-59
2021/08/21 01:20:18;;;;;;;5.97;3.35;;;;;;;21.06;63.98;101752.16;5055065;28;20029;-60
2021/08/21 01:22:43;;;;;;;6.70;3.15;;;;;;;21.02;63.95;101735.66;5053938;28;20457;-60
2021/08/21 01:25:17;;;;;;;7.22;3.53;;;;;;;21.03;63.80;101742.66;5054767;28;20460;-59
2021/08/21 01:27:42;;;;;;;;;;;;;;;21.05;63.98;101746.03;5055179;28;20017;-60
2021/08/21 01:30:09;;;;;;;8.63;3.53;;;;;;;21.04;64.01;101746.16;5053793;28;20383;-61
2021/08/21 01:32:34;;;;;;;5.90;3.22;;;;;;;21.03;63.95;101747.97;5054434;28;20040;-59
2021/08/21 01:35:03;;;;;;;5.75;3.00;;;;;;;21.04;63.75;101754.09;5054489;28;20044;-60
2021/08/21 01:37:28;;;;;;;5.53;2.80;;;;;;;21.04;64.13;101751.44;5053563;28;20384;-60
2021/08/21 01:39:56;;;;;;;5.13;2.70;;;;;;;21.02;63.88;101747.09;5054233;28;20036;-60
2021/08/21 01:42:22;;;;;;;4.97;3.03;;;;;;;21.04;64.10;101751.44;5054474;28;20104;-60
2021/08/21 01:44:47;;;;;;;4.43;2.70;;;;;;;21.02;64.17;101740.97;5053289;28;20017;-60
2021/08/21 01:47:14;;;;;;;5.60;3.00;;;;;;;21.01;63.82;101744.56;5054320;28;20109;-60
2021/08/21 01:49:41;;;;;;;5.88;2.92;;;;;;;21.02;63.89;101746.28;5054349;28;20032;-61
2021/08/21 01:52:06;;;;;;;5.82;2.90;;;;;;;21.01;63.90;101742.78;5053396;28;20028;-60
2021/08/21 01:54:33;;;;;;;4.85;3.28;;;;;;;21.02;63.87;101743.63;5054316;28;20112;-60
2021/08/21 01:57:00;;;;;;;4.47;2.75;;;;;;;21.01;63.81;101742.78;5053840;28;20078;-60
2021/08/21 01:59:25;;;;;;;6.22;2.70;;;;;;;21.01;63.74;101747.22;5053309;28;20362;-60
2021/08/21 02:01:55;;;;;;;6.00;3.40;;;;;;;21.00;63.75;101750.84;5053629;28;20050;-59
2021/08/21 02:04:21;;;;;;;4.63;2.83;;;;;;;21.01;63.86;101741.91;5054271;28;20270;-60
2021/08/21 02:06:48;;;;;;;4.50;2.75;;;;;;;21.00;63.77;101737.59;5053346;28;20067;-59
2021/08/21 02:09:16;;;;;;;5.22;2.95;;;;;;;21.00;63.71;101743.75;5054081;28;20086;-59
2021/08/21 02:11:42;;;;;;;4.95;2.58;;;;;;;20.99;63.55;101739.41;5053806;28;20104;-59
2021/08/21 02:14:08;;;;;;;5.20;3.08;;;;;;;20.99;63.54;101741.22;5053136;28;20108;-60
2021/08/21 02:16:33;;;;;;;4.82;2.70;;;;;;;20.99;63.63;101742.03;5053417;28;20036;-59
2021/08/21 02:18:59;;;;;;;4.47;2.75;;;;;;;20.97;63.65;101737.84;5052704;28;20032;-59
2021/08/21 02:21:24;;;;;;;6.45;2.97;;;;;;;20.99;63.58;101741.22;5053851;28;20021;-60
2021/08/21 02:23:50;;;;;;;4.70;2.75;;;;;;;20.97;63.52;101732.56;5053308;28;20044;-59
2021/08/21 02:26:15;;;;;;;4.68;2.60;;;;;;;20.97;63.48;101736.03;5052692;28;20021;-60
2021/08/21 02:28:41;;;;;;;4.50;2.70;;;;;;;20.95;63.65;101734.47;5053503;28;20087;-60
2021/08/21 02:31:06;;;;;;;5.13;3.00;;;;;;;20.97;63.53;101736.03;5053218;28;20029;-61
2021/08/21 02:33:35;;;;;;;6.40;3.13;;;;;;;20.97;63.73;101732.56;5052885;28;20040;-60
2021/08/21 02:36:01;;;;;;;4.90;2.92;;;;;;;20.97;63.52;101740.50;5053383;28;20107;-61
2021/08/21 02:38:28;;;;;;;5.35;2.65;;;;;;;20.96;63.38;101739.63;5053335;28;20052;-61
2021/08/21 02:40:56;;;;;;;5.30;2.90;;;;;;;20.96;63.39;101734.34;5052257;28;20021;-60
2021/08/21 02:43:22;;;;;;;5.72;2.95;;;;;;;20.95;63.38;101739.75;5053216;28;20032;-60
2021/08/21 02:45:48;;;;;;;5.03;3.00;;;;;;;20.95;63.31;101739.75;5053053;28;20028;-62
2021/08/21 02:48:13;;;;;;;5.07;3.08;;;;;;;20.94;63.30;101730.97;5052670;28;20032;-60
2021/08/21 02:50:39;;;;;;;4.93;2.85;;;;;;;20.95;63.36;101729.16;5052831;28;20426;-60
2021/08/21 02:53:04;;;;;;;6.82;2.65;;;;;;;20.94;63.41;101738.94;5052846;28;20025;-60
2021/08/21 02:55:29;;;;;;;4.82;2.95;;;;;;;20.93;63.26;101734.56;5052286;28;20052;-61
2021/08/21 02:57:55;;;;;;;5.30;3.00;;;;;;;20.93;63.23;101729.28;5052448;28;20421;-61
2021/08/21 03:00:20;;;;;;;6.30;2.55;;;;;;;20.94;63.41;101735.44;5052983;28;20270;-60
2021/08/21 03:02:45;;;;;;;5.00;2.75;;;;;;;20.94;63.53;101730.13;5052010;28;20098;-61
2021/08/21 03:05:11;;;;;;;4.78;2.72;;;;;;;20.93;63.18;101725.78;5053074;28;20477;-61
2021/08/21 03:07:36;;;;;;;4.70;2.90;;;;;;;20.92;63.47;101730.25;5052922;28;20056;-60
2021/08/21 03:10:04;;;;;;;5.72;3.42;;;;;;;20.93;63.40;101731.94;5051880;28;20021;-60
2021/08/21 03:12:33;;;;;;;6.50;3.10;;;;;;;20.92;63.40;101732.03;5052634;28;20021;-59
2021/08/21 03:14:59;;;;;;;5.28;2.70;;;;;;;20.92;63.28;101730.25;5052758;28;20024;-60
2021/08/21 03:17:27;;;;;;;4.85;3.17;;;;;;;20.91;63.40;101725.91;5052466;28;20033;-61
2021/08/21 03:19:52;;;;;;;5.20;2.78;;;;;;;20.92;63.15;101732.91;5052667;28;20021;-59
2021/08/21 03:22:18;;;;;;;7.90;3.38;;;;;;;20.92;63.36;101732.91;5052321;28;20472;-60
2021/08/21 03:24:46;;;;;;;4.55;2.55;;;;;;;20.91;63.24;101728.56;5052828;28;20025;-59
2021/08/21 03:27:12;;;;;;;5.72;2.83;;;;;;;20.87;63.23;101724.50;5052668;28;20024;-60
2021/08/21 03:29:37;;;;;;;4.85;2.70;;;;;;;20.91;63.18;101722.44;5051876;28;20535;-60
2021/08/21 03:32:03;;;;;;;5.33;2.73;;;;;;;20.91;63.33;101728.56;5052095;28;20569;-61
2021/08/21 03:34:28;;;;;;;4.82;2.72;;;;;;;20.90;63.44;101729.53;5052327;28;20315;-60
2021/08/21 03:36:54;;;;;;;5.47;3.00;;;;;;;20.90;63.21;101716.28;5050708;28;20400;-59
2021/08/21 03:39:19;;;;;;;4.82;2.80;;;;;;;20.91;63.43;101719.78;5052335;28;20104;-60
2021/08/21 03:41:45;;;;;;;4.70;2.70;;;;;;;20.89;63.33;101716.44;5051821;28;20053;-60
2021/08/21 03:44:14;;;;;;;7.38;3.00;;;;;;;20.88;63.46;101712.91;5051482;28;20504;-60
2021/08/21 03:46:39;;;;;;;5.93;3.00;;;;;;;20.89;63.37;101714.59;5052302;28;20158;-60
2021/08/21 03:49:05;;;;;;;4.60;2.53;;;;;;;20.89;63.33;101709.31;5051903;28;20057;-60
2021/08/21 03:51:30;;;;;;;5.18;2.88;;;;;;;20.89;63.36;101711.13;5051372;28;20370;-60
2021/08/21 03:53:55;;;;;;;5.63;3.05;;;;;;;20.89;63.21;101711.13;5051892;28;20029;-59
2021/08/21 03:56:20;;;;;;;5.67;3.03;;;;;;;20.89;63.29;101704.00;5052090;28;20025;-60
2021/08/21 03:58:46;;;;;;;5.03;2.97;;;;;;;20.89;63.30;101708.47;5051059;28;20270;-60
2021/08/21 04:01:11;;;;;;;5.32;3.20;;;;;;;20.88;63.34;101701.47;5052305;28;20365;-59
2021/08/21 04:03:36;;;;;;;6.50;2.85;;;;;;;20.88;63.19;101702.31;5052045;28;20033;-60
2021/08/21 04:06:02;;;;;;;5.13;2.80;;;;;;;20.88;63.32;101704.13;5050852;28;20025;-60
2021/08/21 04:08:27;;;;;;;5.45;3.00;;;;;;;20.87;63.31;101705.09;5052046;28;20029;-59
2021/08/21 04:10:52;;;;;;;5.20;2.95;;;;;;;20.88;63.25;101710.25;5051537;28;20045;-59
2021/08/21 04:13:30;;;;;;;5.33;3.27;;;;;;;20.87;63.27;101716.53;5051128;28;20020;-59
2021/08/21 04:15:55;;;;;;;5.43;3.13;;;;;;;20.87;63.27;101710.38;5051576;28;20274;-60
2021/08/21 04:18:21;;;;;;;5.22;3.50;;;;;;;20.87;63.20;101705.94;5051284;28;20079;-60
2021/08/21 04:20:46;;;;;;;5.82;3.60;;;;;;;20.88;63.23;101709.44;5051645;28;20025;-60
2021/08/21 04:23:11;;;;;;;5.13;3.35;;;;;;;20.86;63.32;101698.94;5051821;28;20021;-60
2021/08/21 04:25:42;;;;;;;5.77;3.57;;;;;;;20.87;63.23;101703.31;5051137;28;20092;-60
2021/08/21 04:28:08;;;;;;;5.97;3.60;;;;;;;20.86;63.13;101704.25;5051417;28;20273;-60
2021/08/21 04:30:39;;;;;;;7.18;3.60;;;;;;;20.87;63.23;101702.44;5051881;28;20032;-60
2021/08/21 04:33:04;;;;;;;5.55;3.40;;;;;;;20.84;63.14;101700.88;5050620;28;20469;-60
2021/08/21 04:35:29;;;;;;;5.20;3.50;;;;;;;20.86;63.10;101709.56;5051863;28;20055;-60
2021/08/21 04:37:55;;;;;;;6.00;3.15;;;;;;;20.87;63.18;101705.09;5051333;28;20742;-59
2021/08/21 04:40:21;;;;;;;5.70;3.60;;;;;;;20.84;63.25;101709.66;5050599;28;20024;-60
2021/08/21 04:42:46;;;;;;;5.60;3.50;;;;;;;20.86;63.21;101716.66;5050949;28;20377;-60
2021/08/21 04:45:12;;;;;;;6.72;3.50;;;;;;;20.84;63.09;101712.31;5051444;28;20032;-59
2021/08/21 04:47:37;;;;;;;6.78;3.83;;;;;;;20.85;63.09;101715.81;5051119;28;20040;-59
2021/08/21 04:50:04;;;;;;;5.10;3.38;;;;;;;20.83;62.95;101712.44;5054859;28;20208;-60
2021/08/21 04:52:29;;;;;;;5.95;3.50;;;;;;;20.84;63.04;101709.66;5054982;28;20024;-60
2021/08/21 04:54:55;;;;;;;6.75;4.03;;;;;;;20.83;63.14;101715.09;5054063;28;20465;-60
2021/08/21 04:57:23;;;;;;;6.07;3.42;;;;;;;20.83;62.96;101713.28;5055450;28;20191;-60
2021/08/21 04:59:49;;;;;;;5.95;3.80;;;;;;;20.82;63.10;101711.59;5055184;28;20028;-60
2021/08/21 05:02:14;;;;;;;4.78;3.22;;;;;;;20.83;63.19;101715.09;5054560;28;20036;-60
2021/08/21 05:04:40;;;;;;;5.45;3.45;;;;;;;20.83;62.82;101715.09;5055123;28;20021;-60
2021/08/21 05:07:05;;;;;;;6.53;4.55;;;;;;;20.83;62.99;101715.09;5054841;28;20032;-60
2021/08/21 05:09:30;;;;;;;5.47;3.53;;;;;;;20.81;62.96;101723.16;5054795;28;20025;-61
2021/08/21 05:11:56;;;;;;;5.03;3.42;;;;;;;20.82;62.67;101721.34;5055258;28;20021;-61
2021/08/21 05:14:21;;;;;;;5.07;3.50;;;;;;;20.82;63.08;101727.50;5055540;28;20464;-61
2021/08/21 05:16:47;;;;;;;6.47;3.90;;;;;;;20.81;62.85;101725.81;5054591;28;20281;-61
2021/08/21 05:19:26;;;;;;;6.57;4.03;;;;;;;20.82;62.92;101727.50;5055731;28;20114;-60
2021/08/21 05:21:56;;;;;;;5.10;3.42;;;;;;;20.82;62.88;101724.84;5053968;28;20029;-60
2021/08/21 05:24:21;;;;;;;5.78;3.70;;;;;;;20.79;63.03;101721.59;5055122;28;20025;-59
2021/08/21 05:26:50;;;;;;;5.88;4.00;;;;;;;20.80;62.89;101723.28;5054740;28;20032;-60
2021/08/21 05:29:18;;;;;;;5.53;3.50;;;;;;;20.81;63.01;101723.16;5054521;28;20017;-60
2021/08/21 05:31:44;;;;;;;5.63;3.55;;;;;;;20.81;62.80;101723.16;5054814;28;20074;-60
2021/08/21 05:34:11;;;;;;;6.13;4.00;;;;;;;20.80;62.60;101721.47;5054885;28;20392;-60
2021/08/21 05:36:37;;;;;;;5.38;3.50;;;;;;;20.80;62.88;101724.09;5054203;28;20025;-60
2021/08/21 05:39:03;;;;;;;6.00;3.67;;;;;;;20.79;62.77;101719.78;5054223;28;20079;-60
2021/08/21 05:41:28;;;;;;;5.30;3.50;;;;;;;20.80;62.85;101726.75;5054864;28;20029;-59
2021/08/21 05:43:54;;;;;;;5.17;3.50;;;;;;;20.78;62.70;101725.22;5053983;28;20111;-60
2021/08/21 05:46:19;;;;;;;6.22;3.63;;;;;;;20.82;62.86;101729.28;5054745;28;20312;-60
2021/08/21 05:48:45;;;;;;;5.60;3.70;;;;;;;20.81;62.81;101727.63;5054589;28;20362;-59
2021/08/21 05:51:10;;;;;;;5.70;3.63;;;;;;;20.82;62.99;101734.59;5054218;28;20439;-60
2021/08/21 05:53:35;;;;;;;6.13;3.80;;;;;;;20.80;63.01;101724.09;5054916;28;20032;-60
2021/08/21 05:56:02;;;;;;;5.07;3.28;;;;;;;20.80;62.87;101725.94;5054617;28;20045;-60
2021/08/21 05:58:30;;;;;;;5.70;3.28;;;;;;;20.80;62.88;101728.56;5053080;28;20380;-60
2021/08/21 06:00:55;;;;;;;5.85;3.70;;;;;;;20.78;63.06;101727.88;5054320;28;20060;-61
2021/08/21 06:03:26;;;;;;;6.20;3.60;;;;;;;20.78;63.05;101727.88;5053907;28;20048;-60
2021/08/21 06:05:52;;;;;;;4.88;3.13;;;;;;;20.78;63.00;101725.22;5053617;28;20469;-59
2021/08/21 06:08:17;;;;;;;5.05;3.70;;;;;;;20.78;62.88;101727.88;5053866;28;20032;-60
2021/08/21 06:10:43;;;;;;;5.05;3.55;;;;;;;20.78;62.99;101735.81;5053891;28;20029;-60
2021/08/21 06:13:09;;;;;;;7.03;3.90;;;;;;;20.77;63.00;101734.94;5053166;28;20422;-60
2021/08/21 06:15:43;;;;;;;6.07;3.53;;;;;;;20.79;63.09;101733.03;5053721;28;20040;-59
2021/08/21 06:18:08;;;;;;;5.70;4.15;;;;;;;20.79;63.22;101733.03;5052723;28;20124;-60
2021/08/21 06:20:33;;;;;;;7.32;3.40;;;;;;;20.81;63.08;101731.09;5053744;28;20049;-60
2021/08/21 06:22:59;;;;;;;6.05;3.67;;;;;;;20.81;63.07;101731.09;5053299;28;20438;-58
2021/08/21 06:25:24;;;;;;;5.90;3.20;;;;;;;20.84;62.98;101735.34;5052635;28;20532;-67
2021/08/21 06:27:50;;;;;;;6.90;3.58;;;;;;;20.85;63.19;101734.34;5053235;28;20029;-60
2021/08/21 06:30:18;;;;;;;4.88;2.78;;;;;;;20.87;63.18;101742.19;5053141;28;20027;-60
2021/08/21 06:32:44;;;;;;;5.20;3.53;;;;;;;20.87;63.13;101737.75;5052108;28;20021;-62
2021/08/21 06:35:10;;;;;;;5.13;3.13;;;;;;;20.91;63.21;101738.34;5053311;28;20082;-59
2021/08/21 06:37:35;;;;;;;5.65;3.58;;;;;;;20.93;63.42;101739.88;5053072;28;20029;-59
2021/08/21 06:40:01;;;;;;;5.47;3.50;;;;;;;20.95;63.55;101734.47;5052100;28;20174;-60
2021/08/21 06:42:26;;;;;;;6.68;3.67;;;;;;;20.99;63.54;101738.56;5053055;28;20087;-60
2021/08/21 06:44:51;;;;;;;5.03;2.88;;;;;;;20.98;63.82;101732.44;5052672;28;20045;-61
2021/08/21 06:47:19;;;;;;;5.85;3.30;;;;;;;21.03;63.83;101740.00;5052342;28;20082;-60
2021/08/21 06:49:44;;;;;;;5.47;3.30;;;;;;;21.04;63.77;101736.38;5052377;28;20022;-60
2021/08/21 06:52:10;;;;;;;5.87;3.47;;;;;;;21.07;63.85;101740.59;5052954;28;20032;-61
2021/08/21 06:54:35;;;;;;;5.15;3.03;;;;;;;21.08;64.04;101736.97;5052119;28;20284;-60
2021/08/21 06:57:00;;;;;;;5.70;3.17;;;;;;;21.10;63.95;101737.72;5052505;28;20047;-58
2021/08/21 06:59:25;;;;;;;6.90;3.08;;;;;;;21.09;63.77;101741.31;5052667;28;20285;-61
2021/08/21 07:01:51;;;;;;;6.55;3.33;;;;;;;21.12;63.79;101741.06;5051518;28;20456;-60
2021/08/21 07:04:16;;;;;;;7.70;3.60;;;;;;;21.13;63.97;101740.13;5052905;28;20207;-58
2021/08/21 07:06:41;;;;;;;5.78;3.35;;;;;;;21.13;63.68;101740.13;5052580;28;20272;-60
2021/08/21 07:09:07;;;;;;;5.45;3.22;;;;;;;21.11;63.80;101732.28;5051624;28;20033;-59
2021/08/21 07:11:32;;;;;;;4.70;3.30;;;;;;;21.11;63.73;101734.06;5051809;28;20060;-59
2021/08/21 07:13:57;;;;;;;5.87;3.93;;;;;;;21.10;63.74;101727.94;5052142;28;20025;-60
2021/08/21 07:16:25;;;;;;;5.68;3.22;;;;;;;21.09;63.71;101731.53;5051685;28;20274;-59
2021/08/21 07:18:51;;;;;;;7.43;3.30;;;;;;;21.10;63.42;101727.09;5052404;28;20028;-62
2021/08/21 07:21:16;;;;;;;5.25;3.35;;;;;;;21.12;63.61;101725.16;5051884;28;20100;-61
2021/08/21 07:23:42;;;;;;;4.50;3.03;;;;;;;21.13;63.88;101726.88;5052635;28;20475;-62
2021/08/21 07:26:10;;;;;;;8.73;3.75;;;;;;;21.14;63.66;101728.53;5052113;28;20029;-61
2021/08/21 07:28:36;;;;;;;5.47;3.28;;;;;;;21.15;63.83;101722.28;5051410;28;20391;-62
2021/08/21 07:31:01;;;;;;;5.90;3.40;;;;;;;21.16;63.95;101727.47;5051875;28;20032;-64
2021/08/21 07:33:27;;;;;;;5.63;3.38;;;;;;;21.18;63.98;101722.03;5052224;28;20025;-64
2021/08/21 07:35:53;;;;;;;5.18;2.80;;;;;;;21.19;63.92;101729.84;5051234;28;20053;-65
2021/08/21 07:38:18;;;;;;;5.40;2.70;;;;;;;21.22;64.00;101727.91;5052072;28;20103;-64
2021/08/21 07:40:44;;;;;;;5.97;2.92;;;;;;;21.23;63.82;101727.78;5051937;28;20029;-63
2021/08/21 07:43:12;;;;;;;4.68;2.88;;;;;;;21.25;63.78;101727.66;5051709;28;20386;-60
2021/08/21 07:45:37;;;;;;;5.28;2.80;;;;;;;21.28;63.72;101730.06;5053944;28;20086;-64
2021/08/21 07:48:03;;;;;;;4.68;2.97;;;;;;;21.28;63.83;101730.91;5052892;28;20967;-61
2021/08/21 07:50:28;;;;;;;5.50;3.20;;;;;;;21.30;64.07;101731.66;5050889;28;20044;-61
2021/08/21 07:52:56;;;;;;;5.13;3.10;;;;;;;21.29;63.87;101729.97;5054701;28;20029;-64
2021/08/21 07:55:21;;;;;;;4.80;2.90;;;;;;;21.33;63.95;101728.75;5056239;28;20021;-62
2021/08/21 07:57:49;;;;;;;6.03;2.88;;;;;;;21.34;63.83;101741.03;5050988;28;20540;-59
2021/08/21 08:00:17;;;;;;;5.15;3.03;;;;;;;21.32;63.80;101736.81;5052226;28;20056;-59
2021/08/21 08:02:45;;;;;;;5.60;2.90;;;;;;;21.34;63.96;101741.03;5051901;28;20469;-59
2021/08/21 08:05:11;;;;;;;5.60;2.88;;;;;;;21.37;63.95;101743.44;5051593;28;20029;-60
2021/08/21 08:07:37;;;;;;;5.88;3.65;;;;;;;21.40;63.52;101741.50;5052093;28;20021;-61
2021/08/21 08:10:03;;;;;;;5.75;3.15;;;;;;;21.37;63.78;101732.81;5051626;28;20365;-60
2021/08/21 08:12:28;;;;;;;4.78;3.15;;;;;;;21.42;63.68;101740.41;5051018;28;20025;-61
2021/08/21 08:14:54;;;;;;;5.82;2.80;;;;;;;21.42;63.73;101739.56;5051883;28;20420;-59
2021/08/21 08:17:19;;;;;;;4.38;2.65;;;;;;;21.44;63.66;101738.47;5051748;28;20044;-59
2021/08/21 08:19:45;;;;;;;4.67;2.60;;;;;;;21.47;63.86;101740.03;5050964;28;20109;-61
2021/08/21 08:22:11;;;;;;;5.25;3.25;;;;;;;21.47;63.49;101734.72;5053363;28;20288;-62
2021/08/21 08:24:36;;;;;;;5.32;2.90;;;;;;;21.49;63.61;101732.81;5055152;28;20043;-61
2021/08/21 08:27:01;;;;;;;5.07;2.90;;;;;;;21.51;63.60;101737.03;5055527;28;20071;-61
2021/08/21 08:29:27;;;;;;;5.55;2.80;;;;;;;21.52;63.73;101735.22;5056449;28;20464;-62
2021/08/21 08:31:52;;;;;;;4.88;2.92;;;;;;;21.53;63.72;101735.09;5055040;28;20663;-62
2021/08/21 08:34:17;;;;;;;4.60;2.63;;;;;;;21.53;63.65;101727.13;5055742;28;20025;-63
2021/08/21 08:36:42;;;;;;;3.93;2.40;;;;;;;21.55;63.51;101732.31;5055873;28;20361;-61
2021/08/21 08:39:08;;;;;;;5.72;2.60;;;;;;;21.55;63.45;101725.22;5054921;28;20285;-63
2021/08/21 08:41:34;;;;;;;4.85;2.65;;;;;;;21.53;63.46;101729.78;5055468;28;20024;-62
2021/08/21 08:44:02;;;;;;;4.68;2.90;;;;;;;21.52;63.61;101725.47;5055585;28;20033;-61
2021/08/21 08:46:27;;;;;;;4.13;2.42;;;;;;;21.52;63.48;101725.47;5054747;28;20021;-61
2021/08/21 08:48:53;;;;;;;4.20;2.65;;;;;;;21.52;63.59;101725.47;5055361;28;20074;-61
2021/08/21 08:51:20;;;;;;;6.00;2.80;;;;;;;21.53;63.67;101728.97;5055541;28;20469;-62
2021/08/21 08:53:45;;;;;;;4.15;2.65;;;;;;;21.55;63.37;101722.56;5054417;28;20020;-63
2021/08/21 08:56:11;;;;;;;4.10;2.33;;;;;;;21.55;63.76;101725.22;5055468;28;20143;-60
2021/08/21 08:58:36;;;;;;;3.92;2.30;;;;;;;21.54;63.73;101726.19;5055142;28;20033;-59
2021/08/21 09:01:02;;;;;;;5.10;2.70;;;;;;;21.54;63.49;101733.31;5054473;28;20496;-61
2021/08/21 09:03:28;;;;;;;4.22;2.28;;;;;;;21.54;63.62;101736.78;5055076;28;20029;-60
2021/08/21 09:05:54;;;;;;;3.78;2.20;;;;;;;21.55;63.77;101737.63;5055118;28;20186;-62
2021/08/21 09:08:27;;;;;;;4.82;2.72;;;;;;;21.57;63.65;101730.41;5054427;28;20025;-63
2021/08/21 09:10:54;;;;;;;5.63;2.60;;;;;;;21.58;63.74;101736.53;5056349;28;20029;-61
2021/08/21 09:13:31;;;;;;;4.00;2.17;;;;;;;21.55;63.65;101727.88;5056820;28;20538;-61
2021/08/21 09:16:00;;;;;;;4.15;2.30;;;;;;;21.57;63.71;101735.72;5056917;28;20078;-59
2021/08/21 09:18:28;;;;;;;5.07;2.85;;;;;;;21.56;63.84;101734.84;5055727;28;20037;-60
2021/08/21 09:20:57;;;;;;;4.70;2.30;;;;;;;21.56;63.76;101729.53;5055221;28;20021;-61
2021/08/21 09:23:38;;;;;;;4.40;2.30;;;;;;;21.58;63.53;101729.41;5056825;28;20052;-61
2021/08/21 09:26:06;;;;;;;3.83;2.30;;;;;;;21.58;63.74;101740.03;5056591;28;20430;-61
2021/08/21 09:28:36;;;;;;;3.90;2.40;;;;;;;21.59;63.50;101727.59;5053951;28;20120;-60
2021/08/21 09:31:14;;;;;;;4.43;2.30;;;;;;;21.60;63.56;101727.47;5055406;28;20139;-62
2021/08/21 09:33:53;;;;;;;3.83;2.00;;;;;;;21.60;63.28;101724.81;5054810;28;20037;-63
2021/08/21 09:36:28;;;;;;;4.20;2.22;;;;;;;21.62;63.52;101722.03;5055092;28;20040;-62
2021/08/21 09:38:53;;;;;;;4.97;2.40;;;;;;;21.63;63.30;101726.38;5055278;28;20389;-61
2021/08/21 09:41:18;;;;;;;4.33;2.53;;;;;;;21.63;63.35;101726.38;5058427;28;20507;-62
2021/08/21 09:43:44;;;;;;;4.25;2.25;;;;;;;21.64;63.33;101725.44;5059471;28;20262;-62
2021/08/21 09:46:13;;;;;;;4.10;2.30;;;;;;;21.64;63.46;101723.59;5058780;28;20479;-60
2021/08/21 09:48:59;;;;;;;4.63;2.10;;;;;;;21.65;63.47;101722.66;5060673;28;20697;-61
2021/08/21 09:51:31;;;;;;;4.53;2.65;;;;;;;21.63;63.32;101719.25;5060421;28;20124;-61
2021/08/21 09:54:05;;;;;;;4.80;2.42;;;;;;;21.67;63.30;101717.22;5061615;28;20051;-60
2021/08/21 09:56:33;;;;;;;4.60;2.53;;;;;;;21.66;63.41;101713.69;5060503;28;20079;-59
2021/08/21 09:59:00;;;;;;;4.80;2.58;;;;;;;21.66;63.23;101713.69;5059760;28;20017;-60
2021/08/21 10:01:30;;;;;;;3.58;2.03;;;;;;;21.66;63.10;101719.00;5058941;28;20025;-60
2021/08/21 10:03:56;;;;;;;4.72;2.53;;;;;;;21.65;63.33;101712.03;5057178;28;20542;-60
2021/08/21 10:06:22;;;;;;;5.47;2.30;;;;;;;21.64;63.35;101702.38;5057236;28;20025;-60
2021/08/21 10:08:48;;;;;;;3.50;2.25;;;;;;;21.61;63.30;101705.28;5056154;28;20487;-59
2021/08/21 10:11:15;;;;;;;6.03;2.20;;;;;;;21.63;63.32;101700.69;5054948;28;20040;-59
2021/08/21 10:13:43;;;;;;;4.78;2.20;;;;;;;21.65;63.38;101705.88;5054235;28;20150;-59
2021/08/21 10:16:09;;;;;;;4.10;2.30;;;;;;;21.65;63.36;101698.78;5053919;28;20032;-59
2021/08/21 10:18:40;;;;;;;4.28;2.10;;;;;;;21.66;63.88;101699.59;5053247;28;20024;-59
2021/08/21 10:21:06;;;;;;;6.43;2.45;;;;;;;21.65;63.65;101693.47;5053547;28;20495;-59
2021/08/21 10:23:31;;;;;;;4.07;2.00;;;;;;;21.65;63.51;101701.44;5054028;28;20029;-60
2021/08/21 10:26:05;;;;;;;4.72;2.20;;;;;;;21.64;63.59;101705.03;5052987;28;20025;-59
2021/08/21 10:28:38;;;;;;;4.90;2.50;;;;;;;21.62;63.54;101701.69;5054120;28;20039;-59
2021/08/21 10:31:03;;;;;;;4.30;2.20;;;;;;;21.63;63.33;101699.88;5053522;28;20396;-60
2021/08/21 10:33:31;;;;;;;4.80;2.20;;;;;;;21.61;63.61;101697.34;5053335;28;20029;-59
2021/08/21 10:35:56;;;;;;;4.82;2.03;;;;;;;21.58;63.68;101692.28;5053526;28;20029;-60
2021/08/21 10:38:32;;;;;;;4.43;2.13;;;;;;;21.59;63.54;101699.28;5052586;28;20062;-60
2021/08/21 10:41:25;;;;;;;4.25;2.10;;;;;;;21.58;63.37;101692.28;5053403;28;20151;-59
2021/08/21 10:43:55;;;;;;;6.30;2.58;;;;;;;21.58;63.35;101691.44;5053096;28;20021;-60
2021/08/21 10:46:29;;;;;;;4.90;2.38;;;;;;;21.57;63.62;101698.56;5052563;28;20028;-60
2021/08/21 10:49:05;;;;;;;6.75;2.20;;;;;;;21.56;63.34;101694.22;5052922;28;20076;-59
2021/08/21 10:51:36;;;;;;;6.32;2.30;;;;;;;21.54;63.43;101688.22;5053260;28;20132;-60
2021/08/21 10:54:26;;;;;;;4.97;2.20;;;;;;;21.54;63.51;101688.22;5052628;28;20029;-60
2021/08/21 10:56:57;;;;;;;5.28;2.45;;;;;;;21.54;63.31;101689.06;5052787;28;20029;-60
2021/08/21 10:59:41;;;;;;;5.03;2.30;;;;;;;21.54;63.66;101690.88;5052663;28;20024;-60
2021/08/21 11:02:25;;;;;;;4.88;2.35;;;;;;;21.53;63.61;101691.81;5052965;28;20096;-60
2021/08/21 11:04:54;;;;;;;5.70;2.20;;;;;;;21.52;63.56;101692.78;5052754;28;20025;-59
2021/08/21 11:07:37;;;;;;;5.93;2.30;;;;;;;21.52;63.56;101688.34;5052543;28;20332;-60
2021/08/21 11:10:28;;;;;;;6.40;2.33;;;;;;;21.50;63.77;101681.47;5052990;28;20045;-60
2021/08/21 11:12:55;;;;;;;4.40;2.10;;;;;;;21.49;63.65;101674.47;5052825;28;20047;-60
2021/08/21 11:15:31;;;;;;;4.20;2.00;;;;;;;21.50;63.42;101678.81;5052232;28;20079;-60
2021/08/21 11:17:56;;;;;;;4.43;2.40;;;;;;;21.48;63.64;101675.44;5052389;28;20110;-61
2021/08/21 11:20:32;;;;;;;3.40;2.10;;;;;;;21.50;63.71;101681.47;5051913;28;20434;-59
2021/08/21 11:23:07;;;;;;;4.43;2.40;;;;;;;21.50;63.82;101678.81;5052601;28;20125;-60